Startpagina
METAR-TAF:

METAR-TAF

Vliegvelden :

Productieplatform

P11-b, Nederland

breedte: 52-21-36N, lengte: 3-20-30E, hoogte: 24 m

Actueel weer

Dit bericht is 14 minuten geleden gemaakt, om 14:55 UTC
Wind 23 kt uit het zuiden, variërend tussen het zuidzuidoosten en het westzuidwesten
Temperatuur 12°C
Vochtigheid 76%
Druk 1023 hPa
Zicht 10 km of meer

METAR: EHPG 141455Z AUTO 18023KT 160V240 9999 NSC 12/08 Q1023 W///H///

Tijdstip: 16:09 (15:09 UTC)


TAF: ontbreekt

Waarnemingen en weersverwachtingen van meer dan 4000 vliegvelden (METAR en TAF).

De beschikbare stations zijn de gele en rode punten op de kaart.

Ga met uw muis naar het station om de naam te zien.

Klik dan om waarnemingen en weersverwachtingen te zien.

kaart wijzigen: klik op de groene knoppen met een zwart kruis om in te zoomen, op de groene knop met een streepje om uit te zoomen of op de groene pijlen voor aangrenzende kaarten.


METAR-TAF: